Taboao da Serra, Brazil
Current Conditions -  °F | °C
As of 12:00 AM on Monday 26 Jan 2015 (Local Time) from SBSP Reporting Station
Scattered Clouds Scattered Clouds  
Wind Chill: 70°   Ceiling: Unl
Heat Index: 70°   Visibility: 6mi
Dew Point: 61°   Wind: 9mph
Humidity: 73%   Direction: 100°E
Pressure: 30.06"   Gusts: NA
Location:  23.6°S, 46.78°W
Report Text: SBSP 260200Z 10008KT 9999 SCT030 21/16 Q1018 RETS
Loading
Personal Weather Stations






























Interactive Weather Map New forecast layout! Learn more

10-Day Weather Forecast

Advertisements
Track Severe Weather on mobile